This is the latest recevied weather packets stored in our database for station/object IW2LSY-11. If no packets are shown the sender has not sent any weather packets the latest 10 day(s).
| Time | Temp. | Humidity | Pressure | Rain* | Wind** | Luminosity | Snow |
|---|---|---|---|---|---|---|---|
| 1777289415 | 26.11° C | 26% | 1015.8 hPa | - | - | 527 W/m² | - |
| 1777288815 | 26.11° C | 27% | 1016 hPa | - | - | 523 W/m² | - |
| 1777288215 | 25.56° C | 28% | 1016 hPa | - | - | 521 W/m² | - |
| 1777287615 | 25.56° C | 29% | 1016.2 hPa | - | - | 519 W/m² | - |
| 1777287015 | 25° C | 29% | 1016.5 hPa | - | - | 514 W/m² | - |
| 1777286415 | 25.56° C | 30% | 1016.6 hPa | - | - | 506 W/m² | - |
| 1777285815 | 25° C | 31% | 1016.7 hPa | - | - | 503 W/m² | - |
| 1777285215 | 25.56° C | 31% | 1016.9 hPa | - | - | 500 W/m² | - |
| 1777284615 | 25° C | 32% | 1017.1 hPa | - | - | 496 W/m² | - |
| 1777284015 | 25° C | 31% | 1017.2 hPa | - | - | 490 W/m² | - |
| 1777283415 | 25° C | 30% | 1017.3 hPa | - | - | 487 W/m² | - |
| 1777282805 | 24.44° C | 32% | 1017.5 hPa | - | - | 483 W/m² | - |
| 1777282205 | 23.89° C | 33% | 1017.7 hPa | - | - | 483 W/m² | - |
| 1777281605 | 22.22° C | 34% | 1017.9 hPa | - | - | 481 W/m² | - |
| 1777281005 | 23.33° C | 33% | 1018.1 hPa | - | - | 482 W/m² | - |
| 1777280405 | 23.33° C | 33% | 1018.3 hPa | - | - | 482 W/m² | - |
| 1777279805 | 21.67° C | 34% | 1018.4 hPa | - | - | 483 W/m² | - |
| 1777279206 | 23.89° C | 32% | 1018.5 hPa | - | - | 486 W/m² | - |
| 1777278606 | 22.78° C | 34% | 1018.6 hPa | - | - | 486 W/m² | - |
| 1777278006 | 21.67° C | 37% | 1018.6 hPa | - | - | 487 W/m² | - |
| 1777277406 | 21.11° C | 39% | 1018.8 hPa | - | - | 487 W/m² | - |
| 1777276807 | 21.11° C | 38% | 1018.9 hPa | - | - | 488 W/m² | - |
| 1777276207 | 21.11° C | 40% | 1019 hPa | - | - | 490 W/m² | - |
| 1777275607 | 21.67° C | 39% | 1019 hPa | - | - | 491 W/m² | - |
| 1777275007 | 21.67° C | 40% | 1019.1 hPa | - | - | 493 W/m² | - |
* Rain since midnight (hover to see other rain measurements)
** Current wind speed in m/s (hover to see current wind gust speed)